sensor_id;sensor_type;location;lat;lon;timestamp;temperature;humidity
4755;DHT22;2391;47.212;7.542;2023-12-07T00:01:21;5.90;92.70
4755;DHT22;2391;47.212;7.542;2023-12-07T00:03:47;5.90;92.80
4755;DHT22;2391;47.212;7.542;2023-12-07T00:06:13;5.90;92.80
4755;DHT22;2391;47.212;7.542;2023-12-07T00:08:38;5.90;92.80
4755;DHT22;2391;47.212;7.542;2023-12-07T00:11:04;5.80;92.80
4755;DHT22;2391;47.212;7.542;2023-12-07T00:13:31;5.90;92.70
4755;DHT22;2391;47.212;7.542;2023-12-07T00:15:57;5.80;92.60
4755;DHT22;2391;47.212;7.542;2023-12-07T00:18:23;5.80;92.50
4755;DHT22;2391;47.212;7.542;2023-12-07T00:20:48;5.70;92.50
4755;DHT22;2391;47.212;7.542;2023-12-07T00:23:15;5.70;92.60
4755;DHT22;2391;47.212;7.542;2023-12-07T00:25:40;5.60;92.60
4755;DHT22;2391;47.212;7.542;2023-12-07T00:28:06;5.60;92.60
4755;DHT22;2391;47.212;7.542;2023-12-07T00:30:32;5.50;92.60
4755;DHT22;2391;47.212;7.542;2023-12-07T00:32:59;5.50;92.60
4755;DHT22;2391;47.212;7.542;2023-12-07T00:35:25;5.50;92.50
4755;DHT22;2391;47.212;7.542;2023-12-07T00:37:53;5.50;92.40
4755;DHT22;2391;47.212;7.542;2023-12-07T00:40:19;5.50;92.40
4755;DHT22;2391;47.212;7.542;2023-12-07T00:42:45;5.50;92.40
4755;DHT22;2391;47.212;7.542;2023-12-07T00:45:11;5.40;92.40
4755;DHT22;2391;47.212;7.542;2023-12-07T00:47:37;5.40;92.50
4755;DHT22;2391;47.212;7.542;2023-12-07T00:50:03;5.30;92.40
4755;DHT22;2391;47.212;7.542;2023-12-07T00:52:29;5.30;92.50
4755;DHT22;2391;47.212;7.542;2023-12-07T00:54:55;5.30;92.50
4755;DHT22;2391;47.212;7.542;2023-12-07T00:57:21;5.30;92.40
4755;DHT22;2391;47.212;7.542;2023-12-07T00:59:47;5.30;92.40
4755;DHT22;2391;47.212;7.542;2023-12-07T01:02:13;5.30;92.40
4755;DHT22;2391;47.212;7.542;2023-12-07T01:04:39;5.20;92.30
4755;DHT22;2391;47.212;7.542;2023-12-07T01:07:04;5.20;92.30
4755;DHT22;2391;47.212;7.542;2023-12-07T01:09:33;5.10;92.40
4755;DHT22;2391;47.212;7.542;2023-12-07T01:12:01;5.00;92.50
4755;DHT22;2391;47.212;7.542;2023-12-07T01:14:27;5.00;92.40
4755;DHT22;2391;47.212;7.542;2023-12-07T01:16:52;5.00;92.40
4755;DHT22;2391;47.212;7.542;2023-12-07T01:19:18;5.00;92.30
4755;DHT22;2391;47.212;7.542;2023-12-07T01:21:44;5.00;92.30
4755;DHT22;2391;47.212;7.542;2023-12-07T01:24:10;5.10;92.30
4755;DHT22;2391;47.212;7.542;2023-12-07T01:26:36;5.10;92.30
4755;DHT22;2391;47.212;7.542;2023-12-07T01:29:01;5.00;92.40
4755;DHT22;2391;47.212;7.542;2023-12-07T01:31:29;5.00;92.10
4755;DHT22;2391;47.212;7.542;2023-12-07T01:33:56;5.00;92.20
4755;DHT22;2391;47.212;7.542;2023-12-07T01:36:21;4.90;92.20
4755;DHT22;2391;47.212;7.542;2023-12-07T01:38:47;4.90;92.20
4755;DHT22;2391;47.212;7.542;2023-12-07T01:41:13;4.90;92.20
4755;DHT22;2391;47.212;7.542;2023-12-07T01:43:44;4.90;92.20
4755;DHT22;2391;47.212;7.542;2023-12-07T01:46:11;4.90;92.10
4755;DHT22;2391;47.212;7.542;2023-12-07T01:48:37;5.00;92.10
4755;DHT22;2391;47.212;7.542;2023-12-07T01:51:03;4.90;92.00
4755;DHT22;2391;47.212;7.542;2023-12-07T01:53:29;4.90;92.10
4755;DHT22;2391;47.212;7.542;2023-12-07T01:55:56;4.80;92.10
4755;DHT22;2391;47.212;7.542;2023-12-07T01:58:23;4.80;92.30
4755;DHT22;2391;47.212;7.542;2023-12-07T02:00:49;4.80;92.30
4755;DHT22;2391;47.212;7.542;2023-12-07T02:03:16;4.80;92.30
4755;DHT22;2391;47.212;7.542;2023-12-07T02:05:43;4.80;92.30
4755;DHT22;2391;47.212;7.542;2023-12-07T02:08:11;4.80;92.30
4755;DHT22;2391;47.212;7.542;2023-12-07T02:10:37;4.80;92.30
4755;DHT22;2391;47.212;7.542;2023-12-07T02:13:03;4.80;92.50
4755;DHT22;2391;47.212;7.542;2023-12-07T02:15:29;4.80;92.60
4755;DHT22;2391;47.212;7.542;2023-12-07T02:18:16;4.70;92.70
4755;DHT22;2391;47.212;7.542;2023-12-07T02:20:53;4.80;92.80
4755;DHT22;2391;47.212;7.542;2023-12-07T02:23:17;4.80;92.80
4755;DHT22;2391;47.212;7.542;2023-12-07T02:25:51;4.80;92.90
4755;DHT22;2391;47.212;7.542;2023-12-07T02:28:16;4.80;93.10
4755;DHT22;2391;47.212;7.542;2023-12-07T02:30:43;4.80;93.20
4755;DHT22;2391;47.212;7.542;2023-12-07T02:33:09;4.80;93.20
4755;DHT22;2391;47.212;7.542;2023-12-07T02:35:37;4.80;93.20
4755;DHT22;2391;47.212;7.542;2023-12-07T02:38:03;4.80;93.30
4755;DHT22;2391;47.212;7.542;2023-12-07T02:40:31;4.90;93.30
4755;DHT22;2391;47.212;7.542;2023-12-07T02:43:00;4.80;93.40
4755;DHT22;2391;47.212;7.542;2023-12-07T02:45:27;4.80;93.40
4755;DHT22;2391;47.212;7.542;2023-12-07T02:47:53;4.80;93.50
4755;DHT22;2391;47.212;7.542;2023-12-07T02:50:19;4.80;93.60
4755;DHT22;2391;47.212;7.542;2023-12-07T02:52:46;4.70;93.70
4755;DHT22;2391;47.212;7.542;2023-12-07T02:55:12;4.70;93.70
4755;DHT22;2391;47.212;7.542;2023-12-07T02:57:37;4.70;93.70
4755;DHT22;2391;47.212;7.542;2023-12-07T03:00:04;4.60;93.60
4755;DHT22;2391;47.212;7.542;2023-12-07T03:02:38;4.60;93.50
4755;DHT22;2391;47.212;7.542;2023-12-07T03:05:04;4.60;93.60
4755;DHT22;2391;47.212;7.542;2023-12-07T03:07:30;4.60;93.60
4755;DHT22;2391;47.212;7.542;2023-12-07T03:09:56;4.60;93.60
4755;DHT22;2391;47.212;7.542;2023-12-07T03:12:22;4.60;93.50
4755;DHT22;2391;47.212;7.542;2023-12-07T03:14:51;4.60;93.50
4755;DHT22;2391;47.212;7.542;2023-12-07T03:17:17;4.60;93.40
4755;DHT22;2391;47.212;7.542;2023-12-07T03:19:42;4.50;93.40
4755;DHT22;2391;47.212;7.542;2023-12-07T03:22:08;4.50;93.70
4755;DHT22;2391;47.212;7.542;2023-12-07T03:24:36;4.50;93.60
4755;DHT22;2391;47.212;7.542;2023-12-07T03:27:03;4.50;93.70
4755;DHT22;2391;47.212;7.542;2023-12-07T03:29:29;4.60;93.80
4755;DHT22;2391;47.212;7.542;2023-12-07T03:31:55;4.60;93.80
4755;DHT22;2391;47.212;7.542;2023-12-07T03:34:20;4.50;93.80
4755;DHT22;2391;47.212;7.542;2023-12-07T03:36:46;4.50;93.90
4755;DHT22;2391;47.212;7.542;2023-12-07T03:39:15;4.50;93.90
4755;DHT22;2391;47.212;7.542;2023-12-07T03:41:41;4.50;93.70
4755;DHT22;2391;47.212;7.542;2023-12-07T03:44:07;4.50;93.70
4755;DHT22;2391;47.212;7.542;2023-12-07T03:46:33;4.50;93.80
4755;DHT22;2391;47.212;7.542;2023-12-07T03:48:58;4.50;93.80
4755;DHT22;2391;47.212;7.542;2023-12-07T03:51:28;4.40;93.70
4755;DHT22;2391;47.212;7.542;2023-12-07T03:53:55;4.50;93.90
4755;DHT22;2391;47.212;7.542;2023-12-07T03:56:26;4.50;93.90
4755;DHT22;2391;47.212;7.542;2023-12-07T03:58:52;4.50;93.80
4755;DHT22;2391;47.212;7.542;2023-12-07T04:01:24;4.50;93.80
4755;DHT22;2391;47.212;7.542;2023-12-07T04:03:50;4.40;93.60
4755;DHT22;2391;47.212;7.542;2023-12-07T04:06:16;4.40;93.60
4755;DHT22;2391;47.212;7.542;2023-12-07T04:08:42;4.40;93.70
4755;DHT22;2391;47.212;7.542;2023-12-07T04:11:08;4.30;93.70
4755;DHT22;2391;47.212;7.542;2023-12-07T04:13:34;4.30;93.70
4755;DHT22;2391;47.212;7.542;2023-12-07T04:16:00;4.30;93.70
4755;DHT22;2391;47.212;7.542;2023-12-07T04:18:26;4.30;93.70
4755;DHT22;2391;47.212;7.542;2023-12-07T04:20:52;4.30;93.60
4755;DHT22;2391;47.212;7.542;2023-12-07T04:23:17;4.20;93.40
4755;DHT22;2391;47.212;7.542;2023-12-07T04:25:43;4.10;93.60
4755;DHT22;2391;47.212;7.542;2023-12-07T04:28:09;4.00;93.70
4755;DHT22;2391;47.212;7.542;2023-12-07T04:30:35;3.90;93.90
4755;DHT22;2391;47.212;7.542;2023-12-07T04:33:01;3.80;93.90
4755;DHT22;2391;47.212;7.542;2023-12-07T04:35:27;3.80;94.00
4755;DHT22;2391;47.212;7.542;2023-12-07T04:37:54;3.70;94.00
4755;DHT22;2391;47.212;7.542;2023-12-07T04:40:20;3.60;94.20
4755;DHT22;2391;47.212;7.542;2023-12-07T04:42:46;3.60;94.40
4755;DHT22;2391;47.212;7.542;2023-12-07T04:45:11;3.60;94.70
4755;DHT22;2391;47.212;7.542;2023-12-07T04:47:37;3.70;94.70
4755;DHT22;2391;47.212;7.542;2023-12-07T04:50:04;3.80;94.50
4755;DHT22;2391;47.212;7.542;2023-12-07T04:52:31;3.80;94.50
4755;DHT22;2391;47.212;7.542;2023-12-07T04:54:56;3.90;94.30
4755;DHT22;2391;47.212;7.542;2023-12-07T04:57:22;4.00;94.20
4755;DHT22;2391;47.212;7.542;2023-12-07T04:59:48;4.00;94.20
4755;DHT22;2391;47.212;7.542;2023-12-07T05:02:16;4.00;94.00
4755;DHT22;2391;47.212;7.542;2023-12-07T05:04:42;4.00;94.00
4755;DHT22;2391;47.212;7.542;2023-12-07T05:07:09;4.00;94.00
4755;DHT22;2391;47.212;7.542;2023-12-07T05:09:34;4.00;93.90
4755;DHT22;2391;47.212;7.542;2023-12-07T05:12:00;4.00;93.80
4755;DHT22;2391;47.212;7.542;2023-12-07T05:14:26;3.90;93.90
4755;DHT22;2391;47.212;7.542;2023-12-07T05:16:52;3.90;93.90
4755;DHT22;2391;47.212;7.542;2023-12-07T05:19:20;3.90;93.80
4755;DHT22;2391;47.212;7.542;2023-12-07T05:21:47;3.90;93.70
4755;DHT22;2391;47.212;7.542;2023-12-07T05:24:13;3.80;93.70
4755;DHT22;2391;47.212;7.542;2023-12-07T05:26:41;3.80;93.90
4755;DHT22;2391;47.212;7.542;2023-12-07T05:29:07;3.80;93.90
4755;DHT22;2391;47.212;7.542;2023-12-07T05:31:33;3.80;93.90
4755;DHT22;2391;47.212;7.542;2023-12-07T05:33:59;3.80;93.90
4755;DHT22;2391;47.212;7.542;2023-12-07T05:36:25;3.70;94.00
4755;DHT22;2391;47.212;7.542;2023-12-07T05:38:51;3.70;94.20
4755;DHT22;2391;47.212;7.542;2023-12-07T05:41:17;3.70;94.20
4755;DHT22;2391;47.212;7.542;2023-12-07T05:43:43;3.70;94.20
4755;DHT22;2391;47.212;7.542;2023-12-07T05:46:09;3.80;94.10
4755;DHT22;2391;47.212;7.542;2023-12-07T05:48:35;3.80;94.10
4755;DHT22;2391;47.212;7.542;2023-12-07T05:51:02;3.80;93.90
4755;DHT22;2391;47.212;7.542;2023-12-07T05:53:28;3.80;93.70
4755;DHT22;2391;47.212;7.542;2023-12-07T05:55:54;3.80;93.70
4755;DHT22;2391;47.212;7.542;2023-12-07T05:58:20;3.90;93.80
4755;DHT22;2391;47.212;7.542;2023-12-07T06:00:46;3.90;93.70
4755;DHT22;2391;47.212;7.542;2023-12-07T06:03:13;3.90;93.70
4755;DHT22;2391;47.212;7.542;2023-12-07T06:05:40;3.90;93.80
4755;DHT22;2391;47.212;7.542;2023-12-07T06:08:05;3.90;93.90
4755;DHT22;2391;47.212;7.542;2023-12-07T06:10:31;3.80;93.80
4755;DHT22;2391;47.212;7.542;2023-12-07T06:12:58;3.90;93.80
4755;DHT22;2391;47.212;7.542;2023-12-07T06:15:26;3.90;93.70
4755;DHT22;2391;47.212;7.542;2023-12-07T06:17:56;3.80;93.70
4755;DHT22;2391;47.212;7.542;2023-12-07T06:20:23;3.80;93.70
4755;DHT22;2391;47.212;7.542;2023-12-07T06:22:49;3.80;93.70
4755;DHT22;2391;47.212;7.542;2023-12-07T06:25:15;3.80;93.70
4755;DHT22;2391;47.212;7.542;2023-12-07T06:27:41;3.80;93.80
4755;DHT22;2391;47.212;7.542;2023-12-07T06:30:08;3.80;93.80
4755;DHT22;2391;47.212;7.542;2023-12-07T06:32:34;3.80;93.90
4755;DHT22;2391;47.212;7.542;2023-12-07T06:35:00;3.70;93.90
4755;DHT22;2391;47.212;7.542;2023-12-07T06:37:26;3.70;93.80
4755;DHT22;2391;47.212;7.542;2023-12-07T06:39:52;3.70;93.60
4755;DHT22;2391;47.212;7.542;2023-12-07T06:42:18;3.60;93.70
4755;DHT22;2391;47.212;7.542;2023-12-07T06:44:48;3.50;93.80
4755;DHT22;2391;47.212;7.542;2023-12-07T06:47:15;3.50;93.80
4755;DHT22;2391;47.212;7.542;2023-12-07T06:49:41;3.50;93.70
4755;DHT22;2391;47.212;7.542;2023-12-07T06:52:07;3.20;93.70
4755;DHT22;2391;47.212;7.542;2023-12-07T06:54:34;3.10;94.00
4755;DHT22;2391;47.212;7.542;2023-12-07T06:57:00;3.00;94.20
4755;DHT22;2391;47.212;7.542;2023-12-07T06:59:25;2.90;94.20
4755;DHT22;2391;47.212;7.542;2023-12-07T07:01:53;2.70;94.40
4755;DHT22;2391;47.212;7.542;2023-12-07T07:04:19;2.60;94.50
4755;DHT22;2391;47.212;7.542;2023-12-07T07:06:45;2.50;94.90
4755;DHT22;2391;47.212;7.542;2023-12-07T07:09:11;2.60;95.10
4755;DHT22;2391;47.212;7.542;2023-12-07T07:11:38;2.70;95.00
4755;DHT22;2391;47.212;7.542;2023-12-07T07:14:04;2.80;95.00
4755;DHT22;2391;47.212;7.542;2023-12-07T07:16:30;2.80;94.70
4755;DHT22;2391;47.212;7.542;2023-12-07T07:18:56;2.90;94.50
4755;DHT22;2391;47.212;7.542;2023-12-07T07:21:22;3.00;94.40
4755;DHT22;2391;47.212;7.542;2023-12-07T07:23:48;3.10;94.20
4755;DHT22;2391;47.212;7.542;2023-12-07T07:26:13;3.10;94.10
4755;DHT22;2391;47.212;7.542;2023-12-07T07:28:41;3.20;94.00
4755;DHT22;2391;47.212;7.542;2023-12-07T07:31:07;3.20;93.90
4755;DHT22;2391;47.212;7.542;2023-12-07T07:33:33;3.20;93.90
4755;DHT22;2391;47.212;7.542;2023-12-07T07:35:58;3.30;93.90
4755;DHT22;2391;47.212;7.542;2023-12-07T07:38:27;3.30;93.80
4755;DHT22;2391;47.212;7.542;2023-12-07T07:40:53;3.40;93.90
4755;DHT22;2391;47.212;7.542;2023-12-07T07:43:18;3.40;93.80
4755;DHT22;2391;47.212;7.542;2023-12-07T07:45:44;3.50;93.80
4755;DHT22;2391;47.212;7.542;2023-12-07T07:48:11;3.50;93.90
4755;DHT22;2391;47.212;7.542;2023-12-07T07:50:38;3.50;93.90
4755;DHT22;2391;47.212;7.542;2023-12-07T07:53:03;3.60;93.80
4755;DHT22;2391;47.212;7.542;2023-12-07T07:55:30;3.60;93.80
4755;DHT22;2391;47.212;7.542;2023-12-07T07:57:56;3.60;93.90
4755;DHT22;2391;47.212;7.542;2023-12-07T08:00:22;3.60;94.00
4755;DHT22;2391;47.212;7.542;2023-12-07T08:02:50;3.60;94.00
4755;DHT22;2391;47.212;7.542;2023-12-07T08:05:16;3.70;94.10
4755;DHT22;2391;47.212;7.542;2023-12-07T08:07:41;3.60;93.90
4755;DHT22;2391;47.212;7.542;2023-12-07T08:10:07;3.50;94.10
4755;DHT22;2391;47.212;7.542;2023-12-07T08:12:34;3.50;94.20
4755;DHT22;2391;47.212;7.542;2023-12-07T08:15:01;3.50;94.30
4755;DHT22;2391;47.212;7.542;2023-12-07T08:17:27;3.60;94.40
4755;DHT22;2391;47.212;7.542;2023-12-07T08:19:53;3.70;94.50
4755;DHT22;2391;47.212;7.542;2023-12-07T08:22:19;3.70;94.40
4755;DHT22;2391;47.212;7.542;2023-12-07T08:24:45;3.70;94.50
4755;DHT22;2391;47.212;7.542;2023-12-07T08:27:11;3.80;94.50
4755;DHT22;2391;47.212;7.542;2023-12-07T08:29:37;3.80;94.40
4755;DHT22;2391;47.212;7.542;2023-12-07T08:32:03;3.80;94.50
4755;DHT22;2391;47.212;7.542;2023-12-07T08:34:29;3.80;94.60
4755;DHT22;2391;47.212;7.542;2023-12-07T08:36:55;3.80;94.60
4755;DHT22;2391;47.212;7.542;2023-12-07T08:39:21;3.80;94.50
4755;DHT22;2391;47.212;7.542;2023-12-07T08:41:47;3.80;94.60
4755;DHT22;2391;47.212;7.542;2023-12-07T08:44:13;3.80;94.30
4755;DHT22;2391;47.212;7.542;2023-12-07T08:46:39;3.80;94.40
4755;DHT22;2391;47.212;7.542;2023-12-07T08:49:04;3.80;94.30
4755;DHT22;2391;47.212;7.542;2023-12-07T08:51:31;3.90;94.40
4755;DHT22;2391;47.212;7.542;2023-12-07T08:53:57;3.90;94.50
4755;DHT22;2391;47.212;7.542;2023-12-07T08:56:23;4.00;94.50
4755;DHT22;2391;47.212;7.542;2023-12-07T08:58:49;4.00;94.40
4755;DHT22;2391;47.212;7.542;2023-12-07T09:01:16;4.00;94.40
4755;DHT22;2391;47.212;7.542;2023-12-07T09:03:41;4.00;94.30
4755;DHT22;2391;47.212;7.542;2023-12-07T09:06:07;4.00;94.40
4755;DHT22;2391;47.212;7.542;2023-12-07T09:08:33;4.00;94.30
4755;DHT22;2391;47.212;7.542;2023-12-07T09:10:59;4.10;94.30
4755;DHT22;2391;47.212;7.542;2023-12-07T09:13:25;4.10;94.40
4755;DHT22;2391;47.212;7.542;2023-12-07T09:28:43;4.50;94.20
4755;DHT22;2391;47.212;7.542;2023-12-07T09:34:23;4.90;93.50
4755;DHT22;2391;47.212;7.542;2023-12-07T09:37:13;4.80;93.20
4755;DHT22;2391;47.212;7.542;2023-12-07T09:39:48;4.60;93.60
4755;DHT22;2391;47.212;7.542;2023-12-07T09:42:14;4.20;94.00
4755;DHT22;2391;47.212;7.542;2023-12-07T09:44:40;3.90;94.40
4755;DHT22;2391;47.212;7.542;2023-12-07T09:47:11;3.80;94.90
4755;DHT22;2391;47.212;7.542;2023-12-07T09:49:36;3.80;95.20
4755;DHT22;2391;47.212;7.542;2023-12-07T09:52:06;3.80;95.20
4755;DHT22;2391;47.212;7.542;2023-12-07T09:54:33;3.90;95.10
4755;DHT22;2391;47.212;7.542;2023-12-07T09:57:01;3.90;95.10
4755;DHT22;2391;47.212;7.542;2023-12-07T09:59:27;3.80;95.10
4755;DHT22;2391;47.212;7.542;2023-12-07T10:01:53;3.60;95.30
4755;DHT22;2391;47.212;7.542;2023-12-07T10:04:21;3.40;95.70
4755;DHT22;2391;47.212;7.542;2023-12-07T10:10:00;3.30;96.20
4755;DHT22;2391;47.212;7.542;2023-12-07T10:12:27;3.30;96.60
4755;DHT22;2391;47.212;7.542;2023-12-07T10:14:53;3.30;96.40
4755;DHT22;2391;47.212;7.542;2023-12-07T10:17:19;3.30;96.60
4755;DHT22;2391;47.212;7.542;2023-12-07T10:19:44;3.30;96.70
4755;DHT22;2391;47.212;7.542;2023-12-07T10:22:14;3.40;96.90
4755;DHT22;2391;47.212;7.542;2023-12-07T10:24:42;3.50;96.60
4755;DHT22;2391;47.212;7.542;2023-12-07T10:27:08;3.50;96.60
4755;DHT22;2391;47.212;7.542;2023-12-07T10:29:38;3.50;96.70
4755;DHT22;2391;47.212;7.542;2023-12-07T10:32:04;3.50;96.60
4755;DHT22;2391;47.212;7.542;2023-12-07T10:34:31;3.50;96.60
4755;DHT22;2391;47.212;7.542;2023-12-07T10:36:59;3.50;96.70
4755;DHT22;2391;47.212;7.542;2023-12-07T10:39:25;3.50;96.80
4755;DHT22;2391;47.212;7.542;2023-12-07T10:41:55;3.60;96.80
4755;DHT22;2391;47.212;7.542;2023-12-07T10:44:23;3.70;96.70
4755;DHT22;2391;47.212;7.542;2023-12-07T10:46:51;3.60;96.70
4755;DHT22;2391;47.212;7.542;2023-12-07T10:49:20;3.60;96.70
4755;DHT22;2391;47.212;7.542;2023-12-07T10:51:59;3.60;96.80
4755;DHT22;2391;47.212;7.542;2023-12-07T10:54:38;3.50;96.90
4755;DHT22;2391;47.212;7.542;2023-12-07T10:57:03;3.60;96.90
4755;DHT22;2391;47.212;7.542;2023-12-07T10:59:31;3.60;96.90
4755;DHT22;2391;47.212;7.542;2023-12-07T11:01:58;3.70;96.90
4755;DHT22;2391;47.212;7.542;2023-12-07T11:04:25;3.70;97.10
4755;DHT22;2391;47.212;7.542;2023-12-07T11:06:54;3.70;97.00
4755;DHT22;2391;47.212;7.542;2023-12-07T11:09:25;3.60;96.80
4755;DHT22;2391;47.212;7.542;2023-12-07T11:11:59;3.50;97.00
4755;DHT22;2391;47.212;7.542;2023-12-07T11:14:25;3.40;97.30
4755;DHT22;2391;47.212;7.542;2023-12-07T11:16:52;3.30;97.40
4755;DHT22;2391;47.212;7.542;2023-12-07T11:22:09;3.40;97.40
4755;DHT22;2391;47.212;7.542;2023-12-07T11:24:35;3.40;97.60
4755;DHT22;2391;47.212;7.542;2023-12-07T11:27:02;3.40;97.50
4755;DHT22;2391;47.212;7.542;2023-12-07T11:29:28;3.50;97.70
4755;DHT22;2391;47.212;7.542;2023-12-07T11:32:02;3.70;97.70
4755;DHT22;2391;47.212;7.542;2023-12-07T11:37:07;3.90;97.20
4755;DHT22;2391;47.212;7.542;2023-12-07T11:39:38;3.90;97.00
4755;DHT22;2391;47.212;7.542;2023-12-07T11:44:40;4.10;96.60
4755;DHT22;2391;47.212;7.542;2023-12-07T11:47:07;4.20;96.60
4755;DHT22;2391;47.212;7.542;2023-12-07T11:49:34;4.10;96.60
4755;DHT22;2391;47.212;7.542;2023-12-07T11:52:00;4.10;96.40
4755;DHT22;2391;47.212;7.542;2023-12-07T11:54:27;4.10;96.70
4755;DHT22;2391;47.212;7.542;2023-12-07T11:56:55;4.30;96.80
4755;DHT22;2391;47.212;7.542;2023-12-07T11:59:22;4.40;96.60
4755;DHT22;2391;47.212;7.542;2023-12-07T12:01:49;4.50;96.40
4755;DHT22;2391;47.212;7.542;2023-12-07T12:04:15;4.50;96.20
4755;DHT22;2391;47.212;7.542;2023-12-07T12:06:43;4.60;96.10
4755;DHT22;2391;47.212;7.542;2023-12-07T12:09:12;4.70;95.90
4755;DHT22;2391;47.212;7.542;2023-12-07T12:11:44;4.80;95.50
4755;DHT22;2391;47.212;7.542;2023-12-07T12:14:08;4.80;95.30
4755;DHT22;2391;47.212;7.542;2023-12-07T12:16:35;4.80;95.40
4755;DHT22;2391;47.212;7.542;2023-12-07T12:19:01;4.90;95.30
4755;DHT22;2391;47.212;7.542;2023-12-07T12:21:27;5.00;95.20
4755;DHT22;2391;47.212;7.542;2023-12-07T12:23:53;5.00;95.10
4755;DHT22;2391;47.212;7.542;2023-12-07T12:26:18;5.00;95.10
4755;DHT22;2391;47.212;7.542;2023-12-07T12:28:45;5.00;95.20
4755;DHT22;2391;47.212;7.542;2023-12-07T12:31:12;4.90;95.20
4755;DHT22;2391;47.212;7.542;2023-12-07T12:33:37;4.90;95.20
4755;DHT22;2391;47.212;7.542;2023-12-07T12:36:06;4.90;95.20
4755;DHT22;2391;47.212;7.542;2023-12-07T12:38:33;4.80;95.40
4755;DHT22;2391;47.212;7.542;2023-12-07T12:40:59;4.70;95.60
4755;DHT22;2391;47.212;7.542;2023-12-07T12:43:25;4.70;95.70
4755;DHT22;2391;47.212;7.542;2023-12-07T12:45:53;4.80;95.50
4755;DHT22;2391;47.212;7.542;2023-12-07T12:48:19;4.80;95.30
4755;DHT22;2391;47.212;7.542;2023-12-07T12:50:44;4.90;95.10
4755;DHT22;2391;47.212;7.542;2023-12-07T12:53:11;4.90;95.10
4755;DHT22;2391;47.212;7.542;2023-12-07T12:55:38;5.00;95.00
4755;DHT22;2391;47.212;7.542;2023-12-07T12:58:09;5.00;95.00
4755;DHT22;2391;47.212;7.542;2023-12-07T13:00:37;5.10;94.80
4755;DHT22;2391;47.212;7.542;2023-12-07T13:03:04;5.10;94.80
4755;DHT22;2391;47.212;7.542;2023-12-07T13:05:31;5.10;94.70
4755;DHT22;2391;47.212;7.542;2023-12-07T13:08:01;5.10;94.40
4755;DHT22;2391;47.212;7.542;2023-12-07T13:10:27;5.20;94.10
4755;DHT22;2391;47.212;7.542;2023-12-07T13:12:53;5.30;93.90
4755;DHT22;2391;47.212;7.542;2023-12-07T13:15:19;5.20;93.90
4755;DHT22;2391;47.212;7.542;2023-12-07T13:17:44;5.10;93.90
4755;DHT22;2391;47.212;7.542;2023-12-07T13:20:11;5.10;93.90
4755;DHT22;2391;47.212;7.542;2023-12-07T13:22:38;5.00;93.90
4755;DHT22;2391;47.212;7.542;2023-12-07T13:25:05;5.00;94.10
4755;DHT22;2391;47.212;7.542;2023-12-07T13:27:35;5.10;94.20
4755;DHT22;2391;47.212;7.542;2023-12-07T13:30:02;5.10;94.20
4755;DHT22;2391;47.212;7.542;2023-12-07T13:32:33;5.20;94.10
4755;DHT22;2391;47.212;7.542;2023-12-07T13:35:00;5.10;94.10
4755;DHT22;2391;47.212;7.542;2023-12-07T13:37:27;5.20;94.10
4755;DHT22;2391;47.212;7.542;2023-12-07T13:39:52;5.20;94.00
4755;DHT22;2391;47.212;7.542;2023-12-07T13:42:20;5.20;93.80
4755;DHT22;2391;47.212;7.542;2023-12-07T13:44:46;5.30;93.70
4755;DHT22;2391;47.212;7.542;2023-12-07T13:47:11;5.30;93.70
4755;DHT22;2391;47.212;7.542;2023-12-07T13:49:37;5.40;93.70
4755;DHT22;2391;47.212;7.542;2023-12-07T13:52:04;5.40;93.60
4755;DHT22;2391;47.212;7.542;2023-12-07T13:54:30;5.40;93.60
4755;DHT22;2391;47.212;7.542;2023-12-07T13:56:57;5.40;93.60
4755;DHT22;2391;47.212;7.542;2023-12-07T13:59:23;5.40;93.40
4755;DHT22;2391;47.212;7.542;2023-12-07T14:01:49;5.30;93.50
4755;DHT22;2391;47.212;7.542;2023-12-07T14:04:15;5.30;93.60
4755;DHT22;2391;47.212;7.542;2023-12-07T14:06:41;5.20;93.50
4755;DHT22;2391;47.212;7.542;2023-12-07T14:09:07;5.10;93.50
4755;DHT22;2391;47.212;7.542;2023-12-07T14:11:33;5.10;93.40
4755;DHT22;2391;47.212;7.542;2023-12-07T14:13:58;5.10;93.50
4755;DHT22;2391;47.212;7.542;2023-12-07T14:16:24;5.10;93.70
4755;DHT22;2391;47.212;7.542;2023-12-07T14:18:50;5.10;93.50
4755;DHT22;2391;47.212;7.542;2023-12-07T14:21:23;5.10;93.80
4755;DHT22;2391;47.212;7.542;2023-12-07T14:23:50;5.00;93.50
4755;DHT22;2391;47.212;7.542;2023-12-07T14:26:18;5.00;93.70
4755;DHT22;2391;47.212;7.542;2023-12-07T14:28:43;5.10;93.70
4755;DHT22;2391;47.212;7.542;2023-12-07T14:31:09;5.10;93.80
4755;DHT22;2391;47.212;7.542;2023-12-07T14:33:37;5.10;93.70
4755;DHT22;2391;47.212;7.542;2023-12-07T14:36:03;5.20;93.60
4755;DHT22;2391;47.212;7.542;2023-12-07T14:38:29;5.20;93.50
4755;DHT22;2391;47.212;7.542;2023-12-07T14:40:57;5.20;93.50
4755;DHT22;2391;47.212;7.542;2023-12-07T14:43:23;5.30;93.10
4755;DHT22;2391;47.212;7.542;2023-12-07T14:45:48;5.30;93.10
4755;DHT22;2391;47.212;7.542;2023-12-07T14:48:14;5.30;93.10
4755;DHT22;2391;47.212;7.542;2023-12-07T14:50:40;5.30;93.10
4755;DHT22;2391;47.212;7.542;2023-12-07T14:53:06;5.20;93.20
4755;DHT22;2391;47.212;7.542;2023-12-07T14:55:31;5.10;93.40
4755;DHT22;2391;47.212;7.542;2023-12-07T14:57:57;5.20;93.40
4755;DHT22;2391;47.212;7.542;2023-12-07T15:00:23;5.20;93.30
4755;DHT22;2391;47.212;7.542;2023-12-07T15:02:51;5.20;93.40
4755;DHT22;2391;47.212;7.542;2023-12-07T15:05:17;5.20;93.40
4755;DHT22;2391;47.212;7.542;2023-12-07T15:07:43;5.30;93.30
4755;DHT22;2391;47.212;7.542;2023-12-07T15:10:09;5.30;93.30
4755;DHT22;2391;47.212;7.542;2023-12-07T15:12:35;5.30;93.30
4755;DHT22;2391;47.212;7.542;2023-12-07T15:15:01;5.40;93.20
4755;DHT22;2391;47.212;7.542;2023-12-07T15:17:27;5.50;93.20
4755;DHT22;2391;47.212;7.542;2023-12-07T15:19:53;5.50;93.10
4755;DHT22;2391;47.212;7.542;2023-12-07T15:22:19;5.50;93.10
4755;DHT22;2391;47.212;7.542;2023-12-07T15:24:45;5.50;93.10
4755;DHT22;2391;47.212;7.542;2023-12-07T15:27:10;5.50;93.10
4755;DHT22;2391;47.212;7.542;2023-12-07T15:29:36;5.50;93.30
4755;DHT22;2391;47.212;7.542;2023-12-07T15:32:06;5.40;92.90
4755;DHT22;2391;47.212;7.542;2023-12-07T15:34:33;5.30;93.10
4755;DHT22;2391;47.212;7.542;2023-12-07T15:37:00;5.30;93.00
4755;DHT22;2391;47.212;7.542;2023-12-07T15:39:26;5.20;92.90
4755;DHT22;2391;47.212;7.542;2023-12-07T15:41:52;5.10;93.00
4755;DHT22;2391;47.212;7.542;2023-12-07T15:44:17;5.10;93.20
4755;DHT22;2391;47.212;7.542;2023-12-07T15:46:44;5.10;93.20
4755;DHT22;2391;47.212;7.542;2023-12-07T15:49:09;5.20;93.10
4755;DHT22;2391;47.212;7.542;2023-12-07T15:51:35;5.20;93.10
4755;DHT22;2391;47.212;7.542;2023-12-07T15:54:01;5.20;93.10
4755;DHT22;2391;47.212;7.542;2023-12-07T15:56:28;5.20;93.10
4755;DHT22;2391;47.212;7.542;2023-12-07T15:58:53;5.20;93.20
4755;DHT22;2391;47.212;7.542;2023-12-07T16:01:19;5.30;93.10
4755;DHT22;2391;47.212;7.542;2023-12-07T16:03:45;5.20;92.90
4755;DHT22;2391;47.212;7.542;2023-12-07T16:06:11;5.20;92.80
4755;DHT22;2391;47.212;7.542;2023-12-07T16:08:36;5.20;92.80
4755;DHT22;2391;47.212;7.542;2023-12-07T16:11:02;5.30;92.70
4755;DHT22;2391;47.212;7.542;2023-12-07T16:13:28;5.30;92.80
4755;DHT22;2391;47.212;7.542;2023-12-07T16:15:54;5.30;92.60
4755;DHT22;2391;47.212;7.542;2023-12-07T16:18:20;5.30;92.60
4755;DHT22;2391;47.212;7.542;2023-12-07T16:20:45;5.30;92.50
4755;DHT22;2391;47.212;7.542;2023-12-07T16:23:13;5.20;92.60
4755;DHT22;2391;47.212;7.542;2023-12-07T16:25:38;5.10;92.70
4755;DHT22;2391;47.212;7.542;2023-12-07T16:28:04;5.10;92.90
4755;DHT22;2391;47.212;7.542;2023-12-07T16:30:30;5.00;93.00
4755;DHT22;2391;47.212;7.542;2023-12-07T16:32:56;5.00;92.90
4755;DHT22;2391;47.212;7.542;2023-12-07T16:35:21;5.10;92.90
4755;DHT22;2391;47.212;7.542;2023-12-07T16:37:47;5.10;92.90
4755;DHT22;2391;47.212;7.542;2023-12-07T16:40:13;5.10;92.80